createdAt,value
2023-03-18T00:01:39.480Z,16.52
2023-03-18T00:04:07.062Z,17.20
2023-03-18T00:06:38.438Z,17.50
2023-03-18T00:09:06.276Z,17.30
2023-03-18T00:11:33.528Z,15.65
2023-03-18T00:14:00.534Z,17.67
2023-03-18T00:16:27.849Z,17.00
2023-03-18T00:18:54.993Z,14.93
2023-03-18T00:21:23.513Z,19.00
2023-03-18T00:23:56.403Z,16.92
2023-03-18T00:26:28.074Z,16.48
2023-03-18T00:28:59.404Z,17.15
2023-03-18T00:31:27.838Z,16.08
2023-03-18T00:33:55.310Z,16.88
2023-03-18T00:36:26.405Z,16.23
2023-03-18T00:38:59.654Z,27.33
2023-03-18T00:41:28.338Z,25.67
2023-03-18T00:43:57.053Z,23.30
2023-03-18T00:46:30.952Z,26.85
2023-03-18T00:49:00.745Z,25.70
2023-03-18T00:51:31.504Z,20.58
2023-03-18T00:54:02.401Z,20.52
2023-03-18T00:56:32.334Z,20.30
2023-03-18T00:59:00.431Z,17.83
2023-03-18T01:01:28.351Z,17.73
2023-03-18T01:03:55.955Z,15.60
2023-03-18T01:06:26.502Z,15.52
2023-03-18T01:08:53.871Z,16.00
2023-03-18T01:11:21.549Z,16.00
2023-03-18T01:13:49.394Z,16.10
2023-03-18T01:16:17.993Z,17.00
2023-03-18T01:18:48.244Z,14.13
2023-03-18T01:21:15.489Z,17.17
2023-03-18T01:23:49.351Z,16.08
2023-03-18T01:26:16.958Z,15.40
2023-03-18T01:28:45.867Z,14.25
2023-03-18T01:31:13.972Z,12.20
2023-03-18T01:33:42.586Z,14.32
2023-03-18T01:36:10.729Z,14.50
2023-03-18T01:38:41.209Z,17.23
2023-03-18T01:41:13.288Z,14.63
2023-03-18T01:43:42.984Z,15.65
2023-03-18T01:46:39.066Z,17.27
2023-03-18T01:49:12.725Z,18.00
2023-03-18T01:51:43.851Z,15.98
2023-03-18T01:54:12.955Z,15.23
2023-03-18T01:56:42.936Z,17.38
2023-03-18T01:59:14.092Z,23.95
2023-03-18T02:01:53.211Z,15.20
2023-03-18T02:04:25.903Z,15.88
2023-03-18T02:06:53.209Z,16.80
2023-03-18T02:09:22.810Z,14.73
2023-03-18T02:11:51.882Z,21.30
2023-03-18T02:14:23.818Z,15.52
2023-03-18T02:17:19.335Z,15.60
2023-03-18T02:19:58.576Z,17.33
2023-03-18T02:22:41.463Z,18.58
2023-03-18T02:25:32.966Z,19.83
2023-03-18T02:28:04.167Z,14.55
2023-03-18T02:30:38.370Z,16.60
2023-03-18T02:33:11.399Z,15.13
2023-03-18T02:35:40.210Z,16.15
2023-03-18T02:38:07.237Z,15.52
2023-03-18T02:40:37.699Z,16.33
2023-03-18T02:43:31.673Z,14.25
2023-03-18T02:46:20.625Z,13.93
2023-03-18T02:48:49.060Z,15.93
2023-03-18T02:51:17.705Z,12.82
2023-03-18T02:53:46.124Z,13.82
2023-03-18T02:56:13.595Z,13.52
2023-03-18T02:58:42.538Z,15.23
2023-03-18T03:01:16.092Z,14.65
2023-03-18T03:03:44.102Z,15.18
2023-03-18T03:06:13.281Z,12.70
2023-03-18T03:08:41.603Z,12.65
2023-03-18T03:11:09.324Z,14.45
2023-03-18T03:13:42.640Z,17.17
2023-03-18T03:16:13.226Z,15.35
2023-03-18T03:18:40.712Z,14.68
2023-03-18T03:21:08.894Z,16.08
2023-03-18T03:23:36.785Z,16.75
2023-03-18T03:26:05.298Z,13.95
2023-03-18T03:28:33.523Z,17.27
2023-03-18T03:31:01.354Z,17.80
2023-03-18T03:33:29.156Z,14.05
2023-03-18T03:35:58.305Z,17.50
2023-03-18T03:38:26.605Z,14.70
2023-03-18T03:40:55.262Z,14.93
2023-03-18T03:43:34.166Z,18.27
2023-03-18T03:46:01.377Z,13.95
2023-03-18T03:48:28.582Z,19.65
2023-03-18T03:50:56.813Z,15.35
2023-03-18T03:53:25.118Z,16.77
2023-03-18T03:55:52.977Z,16.48
2023-03-18T03:58:20.055Z,15.55
2023-03-18T04:00:48.077Z,14.18
2023-03-18T04:03:15.082Z,15.52
2023-03-18T04:05:43.343Z,16.33
2023-03-18T04:08:11.031Z,16.15
2023-03-18T04:10:39.443Z,20.45
2023-03-18T04:13:10.281Z,15.75
2023-03-18T04:15:37.961Z,16.25
2023-03-18T04:20:38.998Z,15.38
2023-03-18T04:23:15.725Z,16.00
2023-03-18T04:25:43.267Z,19.38
2023-03-18T04:28:10.659Z,15.18
2023-03-18T04:30:38.108Z,14.43
2023-03-18T04:33:10.393Z,14.55
2023-03-18T04:35:42.924Z,14.85
2023-03-18T04:38:12.232Z,15.40
2023-03-18T04:40:39.416Z,13.63
2023-03-18T04:43:06.595Z,17.27
2023-03-18T04:45:36.743Z,16.63
2023-03-18T04:48:04.353Z,17.42
2023-03-18T04:50:36.810Z,16.80
2023-03-18T04:53:06.569Z,17.38
2023-03-18T04:55:34.243Z,16.60
2023-03-18T04:58:04.659Z,19.05
2023-03-18T05:00:37.472Z,16.70
2023-03-18T05:03:17.030Z,18.75
2023-03-18T05:05:44.107Z,17.40
2023-03-18T05:08:16.915Z,18.40
2023-03-18T05:10:47.746Z,16.65
2023-03-18T05:13:14.858Z,19.85
2023-03-18T05:15:42.840Z,17.75
2023-03-18T05:18:09.957Z,17.95
2023-03-18T05:20:37.294Z,17.02
2023-03-18T05:23:06.008Z,17.10
2023-03-18T05:25:48.063Z,19.27
2023-03-18T05:28:15.292Z,12.25
2023-03-18T05:30:50.044Z,17.35
2023-03-18T05:33:21.411Z,16.02
2023-03-18T05:35:53.917Z,17.60
2023-03-18T05:38:26.441Z,17.85
2023-03-18T05:41:01.480Z,17.48
2023-03-18T05:43:38.702Z,18.25
2023-03-18T05:46:08.066Z,17.77
2023-03-18T05:48:53.601Z,19.13
2023-03-18T05:51:22.454Z,16.13
2023-03-18T05:53:49.772Z,17.85
2023-03-18T05:56:24.862Z,19.35
2023-03-18T05:58:59.224Z,18.80
2023-03-18T06:01:44.792Z,19.45
2023-03-18T06:04:12.007Z,17.85
2023-03-18T06:06:42.231Z,22.10
2023-03-18T06:09:21.058Z,18.33
2023-03-18T06:11:48.663Z,21.25
2023-03-18T06:14:15.764Z,22.42
2023-03-18T06:16:43.673Z,19.05
2023-03-18T06:19:15.692Z,20.77
2023-03-18T06:21:51.556Z,17.15
2023-03-18T06:24:20.536Z,15.50
2023-03-18T06:26:49.298Z,20.23
2023-03-18T06:29:22.243Z,23.35
2023-03-18T06:31:50.179Z,22.13
2023-03-18T06:34:22.551Z,20.55
2023-03-18T06:36:49.601Z,18.35
2023-03-18T06:39:20.107Z,18.70
2023-03-18T06:41:47.249Z,20.65
2023-03-18T06:44:28.402Z,18.63
2023-03-18T06:47:08.240Z,16.75
2023-03-18T06:52:27.611Z,19.05
2023-03-18T06:55:03.513Z,18.92
2023-03-18T06:57:32.808Z,25.17
2023-03-18T07:00:00.106Z,19.50
2023-03-18T07:02:27.592Z,21.65
2023-03-18T07:04:57.430Z,24.40
2023-03-18T07:07:24.757Z,19.60
2023-03-18T07:09:53.114Z,18.70
2023-03-18T07:12:20.194Z,23.83
2023-03-18T07:14:47.208Z,20.30
2023-03-18T07:17:14.864Z,19.52
2023-03-18T07:19:42.041Z,21.90
2023-03-18T07:22:09.202Z,19.52
2023-03-18T07:24:37.721Z,21.30
2023-03-18T07:27:04.879Z,16.58
2023-03-18T07:29:33.850Z,16.65
2023-03-18T07:32:03.673Z,16.65
2023-03-18T07:34:34.974Z,17.40
2023-03-18T07:37:02.496Z,18.77
2023-03-18T07:39:29.407Z,20.55
2023-03-18T07:41:56.437Z,21.13
2023-03-18T07:44:29.517Z,24.73
2023-03-18T07:46:56.546Z,22.10
2023-03-18T07:49:23.972Z,18.58
2023-03-18T07:51:51.068Z,18.13
2023-03-18T07:54:18.748Z,20.08
2023-03-18T07:56:45.890Z,20.95
2023-03-18T07:59:13.019Z,23.08
2023-03-18T08:01:40.088Z,20.42
2023-03-18T08:04:07.795Z,24.73
2023-03-18T08:06:35.340Z,22.98
2023-03-18T08:09:03.678Z,30.90
2023-03-18T08:11:33.780Z,20.75
2023-03-18T08:14:01.592Z,17.90
2023-03-18T08:16:28.677Z,20.45
2023-03-18T08:18:56.198Z,23.85
2023-03-18T08:21:23.244Z,23.85
2023-03-18T08:23:50.248Z,24.90
2023-03-18T08:26:17.292Z,24.13
2023-03-18T08:28:44.416Z,20.52
2023-03-18T08:31:12.257Z,21.30
2023-03-18T08:33:40.727Z,24.00
2023-03-18T08:36:09.039Z,21.95
2023-03-18T08:38:36.374Z,21.73
2023-03-18T08:41:04.103Z,19.05
2023-03-18T08:43:31.371Z,26.13
2023-03-18T08:45:58.768Z,23.55
2023-03-18T08:48:26.163Z,26.92
2023-03-18T08:50:53.860Z,22.33
2023-03-18T08:53:21.098Z,23.48
2023-03-18T08:55:48.695Z,28.40
2023-03-18T08:58:18.946Z,20.83
2023-03-18T09:00:58.522Z,23.17
2023-03-18T09:03:26.029Z,23.45
2023-03-18T09:05:55.664Z,27.08
2023-03-18T09:08:23.710Z,26.42
2023-03-18T09:10:59.526Z,28.80
2023-03-18T09:13:27.596Z,29.05
2023-03-18T09:15:54.790Z,29.02
2023-03-18T09:18:45.975Z,23.98
2023-03-18T09:21:18.631Z,24.45
2023-03-18T09:23:46.371Z,26.33
2023-03-18T09:26:13.556Z,28.30
2023-03-18T09:28:43.779Z,25.75
2023-03-18T09:31:20.766Z,23.48
2023-03-18T09:33:48.577Z,24.00
2023-03-18T09:36:15.964Z,26.48
2023-03-18T09:38:43.989Z,23.42
2023-03-18T09:41:11.124Z,24.45
2023-03-18T09:44:08.554Z,24.05
2023-03-18T09:46:47.547Z,24.90
2023-03-18T09:49:20.323Z,24.15
2023-03-18T09:52:28.924Z,26.65
2023-03-18T09:55:04.986Z,27.00
2023-03-18T09:57:42.546Z,24.77
2023-03-18T10:00:17.248Z,23.38
2023-03-18T10:03:06.333Z,25.52
2023-03-18T10:05:41.098Z,29.55
2023-03-18T10:09:01.266Z,24.20
2023-03-18T10:11:54.158Z,26.58
2023-03-18T10:14:27.569Z,25.65
2023-03-18T10:17:32.957Z,26.05
2023-03-18T10:20:04.625Z,25.17
2023-03-18T10:22:47.454Z,28.83
2023-03-18T10:30:15.144Z,26.02
2023-03-18T10:36:28.483Z,29.42
2023-03-18T10:40:25.758Z,26.48
2023-03-18T10:42:56.436Z,26.58
2023-03-18T10:49:19.855Z,26.50
2023-03-18T10:54:50.747Z,28.53
2023-03-18T10:57:23.560Z,26.48
2023-03-18T10:59:52.310Z,25.33
2023-03-18T11:02:49.859Z,25.23
2023-03-18T11:05:30.514Z,28.17
2023-03-18T11:08:42.534Z,28.33
2023-03-18T11:11:20.228Z,27.38
2023-03-18T11:17:53.541Z,26.85
2023-03-18T11:20:47.576Z,20.30
2023-03-18T11:23:36.213Z,27.15
2023-03-18T11:26:08.235Z,28.10
2023-03-18T11:35:32.932Z,26.77
2023-03-18T11:38:04.473Z,31.25
2023-03-18T11:40:36.038Z,27.75
2023-03-18T11:46:58.944Z,28.65
2023-03-18T11:49:28.572Z,31.98
2023-03-18T11:52:40.027Z,30.80
2023-03-18T11:55:19.752Z,28.55
2023-03-18T11:57:56.134Z,27.00
2023-03-18T12:00:38.476Z,29.02
2023-03-18T12:03:33.141Z,34.83
2023-03-18T12:06:45.255Z,29.55
2023-03-18T12:09:29.380Z,31.42
2023-03-18T12:12:06.863Z,30.20
2023-03-18T12:14:42.618Z,34.65
2023-03-18T12:17:23.650Z,33.88
2023-03-18T12:19:53.423Z,29.92
2023-03-18T12:22:23.586Z,30.55
2023-03-18T12:25:14.306Z,31.23
2023-03-18T12:28:08.922Z,30.58
2023-03-18T12:30:59.926Z,33.85
2023-03-18T12:33:27.108Z,29.40
2023-03-18T12:36:24.015Z,29.38
2023-03-18T12:38:54.247Z,30.50
2023-03-18T12:41:46.868Z,32.40
2023-03-18T12:44:45.796Z,35.20
2023-03-18T12:47:19.062Z,32.22
2023-03-18T12:50:01.069Z,33.28
2023-03-18T12:52:31.805Z,27.75
2023-03-18T12:55:15.015Z,31.17
2023-03-18T12:58:03.164Z,33.83
2023-03-18T13:00:51.332Z,31.25
2023-03-18T13:03:33.034Z,29.33
2023-03-18T13:06:04.687Z,39.22
2023-03-18T13:11:40.385Z,28.45
2023-03-18T13:14:21.856Z,30.85
2023-03-18T13:16:50.440Z,30.17
2023-03-18T13:19:18.567Z,30.48
2023-03-18T13:21:55.280Z,31.02
2023-03-18T13:24:42.168Z,30.15
2023-03-18T13:27:39.384Z,32.28
2023-03-18T13:30:31.503Z,29.63
2023-03-18T13:32:58.749Z,27.80
2023-03-18T13:35:31.200Z,32.25
2023-03-18T13:38:01.251Z,31.55
2023-03-18T13:40:45.358Z,30.48
2023-03-18T13:43:17.554Z,33.13
2023-03-18T13:45:51.526Z,30.77
2023-03-18T13:48:49.199Z,32.55
2023-03-18T13:51:41.117Z,33.50
2023-03-18T13:54:21.572Z,31.02
2023-03-18T13:56:58.122Z,36.83
2023-03-18T13:59:34.314Z,31.90
2023-03-18T14:02:24.477Z,31.80
2023-03-18T14:04:52.345Z,33.10
2023-03-18T14:07:23.714Z,33.08
2023-03-18T14:10:17.933Z,40.05
2023-03-18T14:12:47.531Z,32.30
2023-03-18T14:15:15.780Z,35.03
2023-03-18T14:17:49.517Z,30.92
2023-03-18T14:20:17.761Z,33.08
2023-03-18T14:23:28.821Z,34.92
2023-03-18T14:26:05.239Z,33.47
2023-03-18T14:28:45.921Z,35.58
2023-03-18T14:31:38.581Z,32.63
2023-03-18T14:34:24.567Z,37.03
2023-03-18T14:36:54.494Z,31.00
2023-03-18T14:39:36.118Z,31.05
2023-03-18T14:42:10.649Z,31.08
2023-03-18T14:44:47.338Z,36.70
2023-03-18T14:47:35.607Z,31.45
2023-03-18T14:50:14.503Z,34.20
2023-03-18T14:52:44.948Z,33.35
2023-03-18T14:55:20.886Z,40.40
2023-03-18T14:57:48.014Z,35.20
2023-03-18T15:00:22.374Z,34.55
2023-03-18T15:03:00.684Z,31.90
2023-03-18T15:05:36.881Z,32.67
2023-03-18T15:08:09.546Z,33.10
2023-03-18T15:10:37.557Z,32.50
2023-03-18T15:13:13.035Z,30.42
2023-03-18T15:15:41.588Z,30.83
2023-03-18T15:18:28.851Z,36.47
2023-03-18T15:21:08.956Z,35.85
2023-03-18T15:23:45.074Z,36.00
2023-03-18T15:26:22.438Z,33.80
2023-03-18T15:28:54.615Z,29.45
2023-03-18T15:31:30.546Z,32.10
2023-03-18T15:34:21.004Z,32.47
2023-03-18T15:36:56.992Z,35.70
2023-03-18T15:39:36.853Z,31.55
2023-03-18T15:42:14.298Z,34.05
2023-03-18T15:44:42.977Z,32.55
2023-03-18T15:47:32.184Z,31.10
2023-03-18T15:50:20.675Z,34.53
2023-03-18T15:52:48.468Z,33.78
2023-03-18T15:55:53.001Z,33.78
2023-03-18T15:58:24.725Z,37.10
2023-03-18T16:03:23.748Z,35.78
2023-03-18T16:05:54.667Z,40.67
2023-03-18T16:08:22.983Z,35.53
2023-03-18T16:10:57.635Z,39.00
2023-03-18T16:13:43.500Z,34.38
2023-03-18T16:16:21.266Z,37.35
2023-03-18T16:18:48.998Z,36.92
2023-03-18T16:21:16.030Z,34.60
2023-03-18T16:23:43.127Z,38.20
2023-03-18T16:26:19.343Z,39.97
2023-03-18T16:28:52.575Z,33.13
2023-03-18T16:31:19.698Z,34.78
2023-03-18T16:33:47.475Z,35.70
2023-03-18T16:36:25.616Z,35.95
2023-03-18T16:38:52.672Z,34.55
2023-03-18T16:41:19.763Z,35.83
2023-03-18T16:43:51.359Z,38.20
2023-03-18T16:46:18.739Z,38.78
2023-03-18T16:48:49.456Z,36.17
2023-03-18T16:51:16.906Z,37.47
2023-03-18T16:53:43.877Z,35.75
2023-03-18T16:56:22.142Z,36.60
2023-03-18T16:58:50.308Z,36.95
2023-03-18T17:01:19.449Z,33.70
2023-03-18T17:03:46.666Z,37.95
2023-03-18T17:06:14.681Z,40.17
2023-03-18T17:08:42.066Z,37.05
2023-03-18T17:11:16.128Z,41.78
2023-03-18T17:13:43.029Z,38.65
2023-03-18T17:16:26.569Z,40.17
2023-03-18T17:18:53.683Z,42.45
2023-03-18T17:21:20.636Z,41.08
2023-03-18T17:23:47.888Z,41.72
2023-03-18T17:26:15.888Z,37.25
2023-03-18T17:28:46.141Z,44.20
2023-03-18T17:31:13.592Z,41.72
2023-03-18T17:33:41.189Z,44.10
2023-03-18T17:36:08.756Z,43.10
2023-03-18T17:38:35.889Z,39.88
2023-03-18T17:41:11.610Z,39.63
2023-03-18T17:43:38.549Z,40.92
2023-03-18T17:46:06.226Z,42.67
2023-03-18T17:48:35.638Z,52.38
2023-03-18T17:51:16.345Z,56.25
2023-03-18T17:53:53.691Z,61.33
2023-03-18T17:56:20.980Z,46.60
2023-03-18T17:58:50.543Z,42.08
2023-03-18T18:01:22.539Z,43.17
2023-03-18T18:03:50.528Z,44.92
2023-03-18T18:06:20.875Z,43.42
2023-03-18T18:08:49.385Z,44.72
2023-03-18T18:11:27.705Z,43.80
2023-03-18T18:13:59.162Z,40.40
2023-03-18T18:16:26.479Z,47.78
2023-03-18T18:18:55.823Z,43.20
2023-03-18T18:21:26.060Z,44.40
2023-03-18T18:23:53.144Z,44.80
2023-03-18T18:26:22.187Z,42.53
2023-03-18T18:28:51.870Z,55.15
2023-03-18T18:31:24.091Z,45.38
2023-03-18T18:33:51.349Z,50.17
2023-03-18T18:36:18.440Z,51.47
2023-03-18T18:38:47.201Z,49.60
2023-03-18T18:41:17.400Z,49.10
2023-03-18T18:43:44.529Z,46.83
2023-03-18T18:46:15.102Z,42.50
2023-03-18T18:48:47.031Z,47.90
2023-03-18T18:51:21.828Z,42.88
2023-03-18T18:53:53.718Z,43.65
2023-03-18T18:56:36.792Z,41.67
2023-03-18T18:59:27.593Z,43.70
2023-03-18T19:01:56.437Z,43.53
2023-03-18T19:04:29.328Z,42.72
2023-03-18T19:07:03.811Z,45.22
2023-03-18T19:09:31.517Z,55.47
2023-03-18T19:11:58.598Z,61.10
2023-03-18T19:14:29.398Z,57.10
2023-03-18T19:17:03.639Z,63.35
2023-03-18T19:19:34.803Z,65.43
2023-03-18T19:22:04.188Z,60.58
2023-03-18T19:24:37.230Z,46.75
2023-03-18T19:27:09.953Z,45.83
2023-03-18T19:29:37.604Z,49.15
2023-03-18T19:32:06.443Z,40.53
2023-03-18T19:34:37.470Z,37.58
2023-03-18T19:37:06.024Z,38.83
2023-03-18T19:39:33.164Z,37.33
2023-03-18T19:42:00.422Z,42.75
2023-03-18T19:44:30.562Z,39.58
2023-03-18T19:47:01.653Z,39.67
2023-03-18T19:49:35.142Z,30.15
2023-03-18T19:52:03.058Z,34.55
2023-03-18T19:54:36.888Z,36.67
2023-03-18T19:57:17.460Z,37.28
2023-03-18T19:59:50.530Z,36.70
2023-03-18T20:02:22.193Z,40.70
2023-03-18T20:04:54.843Z,37.22
2023-03-18T20:07:28.454Z,30.48
2023-03-18T20:09:56.348Z,31.83
2023-03-18T20:12:34.835Z,25.13
2023-03-18T20:15:02.634Z,27.17
2023-03-18T20:17:34.406Z,21.95
2023-03-18T20:20:01.647Z,22.27
2023-03-18T20:22:42.270Z,22.35
2023-03-18T20:25:19.689Z,28.50
2023-03-18T20:27:46.910Z,33.28
2023-03-18T20:30:23.221Z,30.10
2023-03-18T20:32:50.915Z,30.75
2023-03-18T20:35:19.441Z,27.58
2023-03-18T20:37:46.980Z,28.90
2023-03-18T20:40:23.868Z,28.05
2023-03-18T20:42:52.734Z,29.27
2023-03-18T20:45:22.277Z,53.95
2023-03-18T20:47:49.891Z,35.03
2023-03-18T20:50:24.354Z,33.03
2023-03-18T20:52:52.447Z,27.17
2023-03-18T20:55:26.861Z,24.50
2023-03-18T20:57:54.594Z,21.83
2023-03-18T21:00:25.571Z,28.60
2023-03-18T21:02:54.533Z,28.40
2023-03-18T21:05:25.646Z,25.50
2023-03-18T21:07:53.342Z,26.48
2023-03-18T21:10:25.776Z,23.83
2023-03-18T21:12:53.130Z,25.10
2023-03-18T21:15:23.423Z,25.33
2023-03-18T21:17:50.960Z,22.98
2023-03-18T21:20:22.422Z,27.63
2023-03-18T21:25:26.365Z,29.10
2023-03-18T21:27:53.896Z,25.30
2023-03-18T21:30:22.864Z,25.55
2023-03-18T21:32:53.710Z,27.38
2023-03-18T21:35:23.182Z,17.57
2023-03-18T21:37:51.206Z,20.17
2023-03-18T21:40:22.005Z,26.05
2023-03-18T21:42:52.547Z,28.73
2023-03-18T21:45:22.889Z,24.55
2023-03-18T21:47:50.342Z,24.05
2023-03-18T21:50:22.884Z,27.50
2023-03-18T21:52:50.394Z,27.00
2023-03-18T21:55:20.012Z,25.45
2023-03-18T21:57:49.006Z,22.48
2023-03-18T22:00:20.466Z,25.75
2023-03-18T22:02:48.227Z,19.75
2023-03-18T22:05:21.893Z,22.50
2023-03-18T22:07:51.026Z,24.45
2023-03-18T22:10:23.357Z,24.85
2023-03-18T22:12:50.873Z,25.52
2023-03-18T22:15:24.038Z,23.00
2023-03-18T22:17:51.864Z,23.40
2023-03-18T22:20:18.989Z,27.50
2023-03-18T22:22:47.577Z,30.42
2023-03-18T22:25:33.117Z,27.67
2023-03-18T22:28:00.828Z,26.15
2023-03-18T22:30:30.982Z,27.77
2023-03-18T22:32:59.771Z,25.50
2023-03-18T22:35:29.023Z,24.58
2023-03-18T22:37:56.765Z,24.83
2023-03-18T22:40:31.904Z,23.33
2023-03-18T22:43:00.989Z,24.55
2023-03-18T22:45:35.754Z,26.88
2023-03-18T22:48:04.130Z,25.77
2023-03-18T22:50:33.981Z,23.20
2023-03-18T22:53:04.808Z,25.77
2023-03-18T22:55:36.529Z,26.75
2023-03-18T22:58:04.078Z,24.67
2023-03-18T23:00:39.078Z,27.50
2023-03-18T23:03:22.304Z,25.88
2023-03-18T23:05:52.483Z,27.77
2023-03-18T23:08:20.638Z,27.75
2023-03-18T23:10:51.648Z,29.73
2023-03-18T23:13:26.333Z,32.10
2023-03-18T23:15:53.873Z,30.02
2023-03-18T23:18:24.105Z,24.58
2023-03-18T23:20:52.102Z,26.98
2023-03-18T23:23:20.980Z,28.75
2023-03-18T23:25:48.638Z,29.08
2023-03-18T23:28:15.857Z,32.05
2023-03-18T23:30:47.845Z,61.85
2023-03-18T23:35:42.924Z,55.08
2023-03-18T23:38:10.411Z,47.42
2023-03-18T23:40:40.620Z,44.53
2023-03-18T23:43:09.142Z,36.83
2023-03-18T23:45:39.687Z,38.95
2023-03-18T23:48:07.262Z,38.45
2023-03-18T23:50:34.759Z,37.67
2023-03-18T23:53:03.354Z,35.55
2023-03-18T23:55:45.812Z,37.20
2023-03-18T23:58:13.132Z,35.38
